Time;durP1;ratioP1;P1;durP2;ratioP2;P2;SDS_P1;SDS_P2;PMS_P1;PMS_P2;Temp;Humidity;BMP_temperature;BMP_pressure;BME280_temperature;BME280_humidity;BME280_pressure;Samples;Min_cycle;Max_cycle;Signal;HPM_P1;HPM_P2
2023/10/02 00:01:06;;;;;;;6.10;1.75;;;;;;;;;;4925565;28;20031;-66
2023/10/02 00:03:39;;;;;;;7.22;2.10;;;;;;;;;;4925962;28;20501;-68
2023/10/02 00:06:06;;;;;;;8.40;2.10;;;;;;;;;;4922619;28;20039;-68
2023/10/02 00:08:35;;;;;;;6.30;2.28;;;;;;;;;;4927034;28;20114;-66
2023/10/02 00:11:35;;;;;;;6.45;1.98;;;;;;;;;;4936853;28;20123;-68
2023/10/02 00:14:18;;;;;;;5.93;2.20;;;;;;;;;;4920535;28;20129;-66
2023/10/02 00:16:42;;;;;;;5.15;2.00;;;;;;;;;;4918512;28;20269;-68
2023/10/02 00:19:22;;;;;;;7.07;2.30;;;;;;;;;;4922547;28;20035;-68
2023/10/02 00:21:50;;;;;;;5.97;2.15;;;;;;;;;;4922685;28;20030;-67
2023/10/02 00:24:16;;;;;;;5.22;2.00;;;;;;;;;;4937662;28;20113;-67
2023/10/02 00:26:42;;;;;;;6.70;2.20;;;;;;;;;;4923329;28;20023;-68
2023/10/02 00:29:09;;;;;;;4.75;1.95;;;;;;;;;;4940746;28;20517;-68
2023/10/02 00:31:38;;;;;;;5.65;2.00;;;;;;;;;;4923143;28;20026;-68
2023/10/02 00:34:04;;;;;;;4.97;1.90;;;;;;;;;;4923518;28;20085;-65
2023/10/02 00:36:30;;;;;;;5.13;1.90;;;;;;;;;;4919514;28;20035;-66
2023/10/02 00:39:24;;;;;;;6.10;2.20;;;;;;;;;;4916127;28;20035;-67
2023/10/02 00:42:10;;;;;;;9.25;2.40;;;;;;;;;;4923771;28;20035;-65
2023/10/02 00:44:51;;;;;;;7.13;2.40;;;;;;;;;;4921100;28;20146;-68
2023/10/02 00:47:35;;;;;;;6.80;2.30;;;;;;;;;;4940269;28;20069;-68
2023/10/02 00:50:21;;;;;;;8.05;2.42;;;;;;;;;;4935555;28;20312;-66
2023/10/02 00:52:50;;;;;;;5.50;2.30;;;;;;;;;;4920249;28;20337;-66
2023/10/02 00:55:18;;;;;;;6.45;2.20;;;;;;;;;;4919693;28;20031;-69
2023/10/02 00:57:45;;;;;;;9.13;2.60;;;;;;;;;;4922645;28;20023;-66
2023/10/02 01:00:22;;;;;;;5.70;2.22;;;;;;;;;;4922691;28;20058;-66
2023/10/02 01:02:50;;;;;;;6.95;2.42;;;;;;;;;;4922330;28;20058;-68
2023/10/02 01:05:21;;;;;;;5.70;2.17;;;;;;;;;;4919765;28;20473;-66
2023/10/02 01:07:47;;;;;;;7.43;2.65;;;;;;;;;;4920538;28;20050;-66
2023/10/02 01:10:20;;;;;;;6.10;2.33;;;;;;;;;;4919106;28;20474;-66
2023/10/02 01:12:50;;;;;;;5.97;2.10;;;;;;;;;;4918887;28;20027;-65
2023/10/02 01:15:20;;;;;;;7.75;2.40;;;;;;;;;;4923941;28;20320;-66
2023/10/02 01:17:47;;;;;;;7.13;2.40;;;;;;;;;;4919829;28;20027;-66
2023/10/02 01:23:16;;;;;;;6.95;2.60;;;;;;;;;;4922037;28;20662;-66
2023/10/02 01:25:44;;;;;;;7.03;2.40;;;;;;;;;;4920055;28;20070;-66
2023/10/02 01:28:11;;;;;;;6.18;2.28;;;;;;;;;;4924936;28;20031;-67
2023/10/02 01:30:37;;;;;;;5.30;2.00;;;;;;;;;;4921760;28;20039;-65
2023/10/02 01:33:11;;;;;;;6.32;2.13;;;;;;;;;;4920726;28;20035;-67
2023/10/02 01:35:48;;;;;;;5.75;2.20;;;;;;;;;;4922797;28;20031;-67
2023/10/02 01:38:16;;;;;;;4.47;1.83;;;;;;;;;;4927075;28;20130;-67
2023/10/02 01:40:48;;;;;;;6.82;2.30;;;;;;;;;;4913449;28;20683;-67
2023/10/02 01:43:15;;;;;;;5.43;2.00;;;;;;;;;;4941850;28;20600;-67
2023/10/02 01:45:45;;;;;;;6.20;2.30;;;;;;;;;;4923782;28;20077;-67
2023/10/02 01:48:13;;;;;;;6.32;2.28;;;;;;;;;;4920636;28;20097;-67
2023/10/02 01:50:42;;;;;;;6.13;2.42;;;;;;;;;;4938161;28;20150;-67
2023/10/02 01:53:28;;;;;;;5.65;2.20;;;;;;;;;;4926685;28;20035;-67
2023/10/02 01:56:00;;;;;;;6.82;2.20;;;;;;;;;;4937152;28;20458;-67
2023/10/02 01:58:27;;;;;;;4.43;1.85;;;;;;;;;;4940979;28;20100;-67
2023/10/02 02:00:53;;;;;;;7.35;2.20;;;;;;;;;;4923088;28;20098;-67
2023/10/02 02:03:20;;;;;;;6.55;2.40;;;;;;;;;;4921530;28;20068;-66
2023/10/02 02:05:46;;;;;;;6.78;2.22;;;;;;;;;;4924417;28;20027;-66
2023/10/02 02:08:22;;;;;;;7.53;2.47;;;;;;;;;;4926719;28;20387;-65
2023/10/02 02:10:52;;;;;;;6.45;2.22;;;;;;;;;;4927804;28;20062;-66
2023/10/02 02:13:22;;;;;;;8.35;2.25;;;;;;;;;;4929809;28;20269;-65
2023/10/02 02:15:51;;;;;;;6.95;2.15;;;;;;;;;;4921405;28;20035;-65
2023/10/02 02:18:20;;;;;;;6.57;2.00;;;;;;;;;;4931379;28;20038;-65
2023/10/02 02:20:58;;;;;;;7.25;2.28;;;;;;;;;;4926621;28;20628;-68
2023/10/02 02:23:28;;;;;;;8.50;2.72;;;;;;;;;;4941998;28;20516;-68
2023/10/02 02:25:54;;;;;;;6.50;2.33;;;;;;;;;;4923909;28;20077;-67
2023/10/02 02:28:22;;;;;;;7.00;2.80;;;;;;;;;;4922702;28;20503;-67
2023/10/02 02:30:48;;;;;;;6.20;2.30;;;;;;;;;;4921469;28;20090;-67
2023/10/02 02:33:15;;;;;;;5.72;2.40;;;;;;;;;;4926009;28;20398;-68
2023/10/02 02:35:44;;;;;;;7.68;3.00;;;;;;;;;;4927838;28;21432;-67
2023/10/02 02:38:16;;;;;;;6.57;2.47;;;;;;;;;;4928292;28;20548;-67
2023/10/02 02:40:42;;;;;;;6.72;2.45;;;;;;;;;;4926125;28;20089;-67
2023/10/02 02:43:19;;;;;;;8.30;2.53;;;;;;;;;;4926071;28;20106;-67
2023/10/02 02:45:45;;;;;;;7.80;2.65;;;;;;;;;;4922315;28;20034;-68
2023/10/02 02:48:12;;;;;;;9.48;2.72;;;;;;;;;;4923456;28;20109;-67
2023/10/02 02:50:43;;;;;;;7.40;2.90;;;;;;;;;;4920754;28;20094;-66
2023/10/02 02:53:22;;;;;;;6.85;2.58;;;;;;;;;;4940917;28;20352;-66
2023/10/02 02:56:10;;;;;;;6.53;2.25;;;;;;;;;;4920438;28;20018;-66
2023/10/02 02:58:38;;;;;;;6.30;2.30;;;;;;;;;;4924266;28;20074;-66
2023/10/02 03:01:06;;;;;;;9.60;2.63;;;;;;;;;;4922885;28;20229;-66
2023/10/02 03:03:41;;;;;;;6.70;2.78;;;;;;;;;;4927912;28;20038;-66
2023/10/02 03:06:22;;;;;;;7.00;2.50;;;;;;;;;;4937981;28;20398;-66
2023/10/02 03:08:52;;;;;;;6.90;2.78;;;;;;;;;;4927809;28;20069;-66
2023/10/02 03:11:22;;;;;;;8.43;2.83;;;;;;;;;;4926228;28;20043;-66
2023/10/02 03:13:51;;;;;;;7.40;2.90;;;;;;;;;;4920397;28;20351;-66
2023/10/02 03:16:19;;;;;;;6.75;2.72;;;;;;;;;;4926462;28;20019;-66
2023/10/02 03:18:49;;;;;;;6.80;2.70;;;;;;;;;;4927290;28;20027;-67
2023/10/02 03:21:16;;;;;;;6.80;2.60;;;;;;;;;;4925003;28;20027;-66
2023/10/02 03:23:43;;;;;;;7.32;2.97;;;;;;;;;;4925521;28;20540;-67
2023/10/02 03:29:02;;;;;;;7.20;2.75;;;;;;;;;;4919659;28;20079;-67
2023/10/02 03:31:34;;;;;;;6.30;2.28;;;;;;;;;;4925666;28;20043;-66
2023/10/02 03:36:59;;;;;;;7.82;2.67;;;;;;;;;;4923766;28;20650;-67
2023/10/02 03:42:13;;;;;;;6.82;2.80;;;;;;;;;;4923097;28;20683;-67
2023/10/02 03:44:42;;;;;;;7.03;2.70;;;;;;;;;;4925826;28;20409;-66
2023/10/02 03:47:12;;;;;;;8.68;3.17;;;;;;;;;;4921916;28;20031;-66
2023/10/02 03:49:40;;;;;;;7.28;3.10;;;;;;;;;;4920778;28;20057;-67
2023/10/02 03:52:06;;;;;;;7.03;2.60;;;;;;;;;;4928071;28;20035;-67
2023/10/02 03:54:34;;;;;;;8.48;2.78;;;;;;;;;;4924039;28;20417;-67
2023/10/02 03:57:02;;;;;;;6.47;2.42;;;;;;;;;;4937246;28;20465;-67
2023/10/02 03:59:31;;;;;;;6.03;2.50;;;;;;;;;;4931794;28;20390;-66
2023/10/02 04:04:44;;;;;;;7.40;2.80;;;;;;;;;;4923456;28;20093;-66
2023/10/02 04:07:11;;;;;;;7.75;3.15;;;;;;;;;;4925355;28;20046;-67
2023/10/02 04:09:37;;;;;;;8.07;2.65;;;;;;;;;;4930118;28;20453;-67
2023/10/02 04:12:07;;;;;;;7.50;2.58;;;;;;;;;;4923073;28;20058;-67
2023/10/02 04:14:36;;;;;;;7.03;2.58;;;;;;;;;;4938297;28;20041;-66
2023/10/02 04:17:13;;;;;;;6.00;2.20;;;;;;;;;;4925623;28;20382;-67
2023/10/02 04:19:52;;;;;;;6.25;2.38;;;;;;;;;;4924982;28;20130;-67
2023/10/02 04:22:25;;;;;;;6.97;2.50;;;;;;;;;;4938242;28;20032;-67
2023/10/02 04:24:58;;;;;;;5.80;2.33;;;;;;;;;;4919864;28;20055;-68
2023/10/02 04:27:28;;;;;;;7.07;2.75;;;;;;;;;;4921142;28;20286;-65
2023/10/02 04:32:34;;;;;;;6.13;2.30;;;;;;;;;;4928523;28;20600;-66
2023/10/02 04:35:02;;;;;;;6.30;2.30;;;;;;;;;;4936640;28;21162;-68
2023/10/02 04:37:31;;;;;;;7.68;2.42;;;;;;;;;;4924418;28;20425;-66
2023/10/02 04:42:57;;;;;;;6.93;2.30;;;;;;;;;;4923101;28;20515;-66
2023/10/02 04:45:20;;;;;;;6.82;2.42;;;;;;;;;;4925880;28;20039;-66
2023/10/02 04:47:54;;;;;;;6.03;2.38;;;;;;;;;;4921987;28;20046;-67
2023/10/02 04:52:57;;;;;;;7.93;2.83;;;;;;;;;;4924127;28;20390;-66
2023/10/02 04:55:25;;;;;;;8.15;3.08;;;;;;;;;;4927208;28;20149;-66
2023/10/02 04:57:54;;;;;;;8.57;3.30;;;;;;;;;;4919821;28;20446;-67
2023/10/02 05:00:27;;;;;;;8.45;2.88;;;;;;;;;;4929756;28;20031;-67
2023/10/02 05:03:09;;;;;;;7.28;2.80;;;;;;;;;;4922952;28;20023;-67
2023/10/02 05:05:47;;;;;;;7.60;2.70;;;;;;;;;;4938626;28;20124;-67
2023/10/02 05:08:21;;;;;;;10.00;2.95;;;;;;;;;;4917908;28;20060;-68
2023/10/02 05:10:56;;;;;;;8.52;2.70;;;;;;;;;;4917545;28;20043;-66
2023/10/02 05:14:09;;;;;;;7.82;2.70;;;;;;;;;;4926347;28;20194;-66
2023/10/02 05:16:12;;;;;;;8.73;2.95;;;;;;;;;;4918663;28;20616;-65
2023/10/02 05:18:44;;;;;;;9.30;2.95;;;;;;;;;;4925961;28;20433;-68
2023/10/02 05:21:11;;;;;;;7.38;2.90;;;;;;;;;;4927981;28;20125;-68
2023/10/02 05:23:38;;;;;;;8.30;2.72;;;;;;;;;;4922610;28;20354;-68
2023/10/02 05:26:11;;;;;;;7.15;2.60;;;;;;;;;;4921298;28;20023;-66
2023/10/02 05:28:44;;;;;;;9.10;2.70;;;;;;;;;;4926372;28;20366;-67
2023/10/02 05:31:16;;;;;;;7.95;2.72;;;;;;;;;;4929406;28;20473;-66
2023/10/02 05:33:43;;;;;;;7.88;2.60;;;;;;;;;;4923365;28;20125;-66
2023/10/02 05:36:10;;;;;;;7.50;3.10;;;;;;;;;;4927290;28;20433;-66
2023/10/02 05:38:38;;;;;;;9.02;2.78;;;;;;;;;;4925057;28;20601;-67
2023/10/02 05:41:12;;;;;;;6.60;2.35;;;;;;;;;;4923905;28;20498;-68
2023/10/02 05:43:55;;;;;;;8.93;2.67;;;;;;;;;;4925862;28;21303;-67
2023/10/02 05:46:21;;;;;;;8.50;2.72;;;;;;;;;;4940055;28;20060;-67
2023/10/02 05:49:00;;;;;;;7.95;3.00;;;;;;;;;;4926221;28;20142;-66
2023/10/02 05:51:45;;;;;;;7.93;3.00;;;;;;;;;;4923475;28;20036;-67
2023/10/02 05:54:11;;;;;;;7.88;3.17;;;;;;;;;;4922038;28;20027;-67
2023/10/02 05:56:37;;;;;;;7.30;2.83;;;;;;;;;;4946381;28;20137;-67
2023/10/02 05:59:04;;;;;;;8.40;2.88;;;;;;;;;;4927355;28;20042;-68
2023/10/02 06:01:34;;;;;;;7.65;2.90;;;;;;;;;;4931180;28;20124;-68
2023/10/02 06:04:00;;;;;;;9.07;3.88;;;;;;;;;;4923650;28;20142;-66
2023/10/02 06:06:31;;;;;;;8.57;2.83;;;;;;;;;;4927224;28;20285;-66
2023/10/02 06:09:12;;;;;;;9.13;3.25;;;;;;;;;;4941718;28;20067;-66
2023/10/02 06:11:59;;;;;;;7.90;2.70;;;;;;;;;;4928938;28;20607;-67
2023/10/02 06:14:25;;;;;;;8.80;3.35;;;;;;;;;;4928104;28;20138;-67
2023/10/02 06:16:52;;;;;;;10.68;3.40;;;;;;;;;;4925341;28;20710;-66
2023/10/02 06:19:19;;;;;;;10.05;3.55;;;;;;;;;;4925520;28;20386;-67
2023/10/02 06:21:47;;;;;;;12.98;3.50;;;;;;;;;;4933841;28;20379;-66
2023/10/02 06:24:17;;;;;;;10.00;3.70;;;;;;;;;;4940719;28;20433;-66
2023/10/02 06:26:58;;;;;;;8.18;3.58;;;;;;;;;;4922829;28;20808;-67
2023/10/02 06:29:25;;;;;;;8.02;3.10;;;;;;;;;;4924625;28;20414;-67
2023/10/02 06:31:58;;;;;;;8.00;2.83;;;;;;;;;;4934255;28;20124;-66
2023/10/02 06:34:25;;;;;;;8.93;2.55;;;;;;;;;;4921778;28;20027;-68
2023/10/02 06:37:02;;;;;;;8.07;2.78;;;;;;;;;;4919636;28;20046;-68
2023/10/02 06:39:35;;;;;;;6.95;2.45;;;;;;;;;;4937027;28;20081;-67
2023/10/02 06:42:04;;;;;;;8.30;2.42;;;;;;;;;;4933946;28;20454;-66
2023/10/02 06:44:41;;;;;;;6.70;2.13;;;;;;;;;;4925879;28;20034;-67
2023/10/02 06:47:11;;;;;;;7.05;2.28;;;;;;;;;;4927692;28;20038;-66
2023/10/02 06:49:46;;;;;;;8.60;2.83;;;;;;;;;;4920816;28;20026;-66
2023/10/02 06:52:18;;;;;;;7.20;2.50;;;;;;;;;;4940215;28;20403;-66
2023/10/02 06:54:56;;;;;;;7.80;2.40;;;;;;;;;;4919703;28;20469;-68
2023/10/02 06:57:24;;;;;;;8.77;2.20;;;;;;;;;;4939209;28;20077;-66
2023/10/02 06:59:54;;;;;;;8.88;2.30;;;;;;;;;;4924021;28;20263;-66
2023/10/02 07:02:24;;;;;;;8.13;2.35;;;;;;;;;;4922695;28;20770;-67
2023/10/02 07:04:52;;;;;;;6.72;2.17;;;;;;;;;;4921761;28;20035;-67
2023/10/02 07:07:25;;;;;;;10.00;2.45;;;;;;;;;;4925613;28;20078;-67
2023/10/02 07:09:54;;;;;;;7.25;2.72;;;;;;;;;;4921979;28;20439;-67
2023/10/02 07:12:21;;;;;;;9.38;2.95;;;;;;;;;;4927723;28;20311;-67
2023/10/02 07:14:48;;;;;;;8.88;3.10;;;;;;;;;;4922811;28;20027;-67
2023/10/02 07:17:18;;;;;;;9.38;3.05;;;;;;;;;;4927758;28;20485;-67
2023/10/02 07:19:48;;;;;;;11.93;4.15;;;;;;;;;;4936974;28;20034;-68
2023/10/02 07:22:24;;;;;;;9.38;3.75;;;;;;;;;;4942015;28;20031;-66
2023/10/02 07:24:58;;;;;;;12.68;3.90;;;;;;;;;;4938298;28;20048;-67
2023/10/02 07:27:28;;;;;;;11.77;4.22;;;;;;;;;;4924333;28;20034;-68
2023/10/02 07:29:54;;;;;;;10.30;4.05;;;;;;;;;;4921156;28;20031;-67
2023/10/02 07:32:28;;;;;;;11.52;4.38;;;;;;;;;;4927237;28;20038;-67
2023/10/02 07:34:55;;;;;;;8.65;3.33;;;;;;;;;;4925253;28;20028;-67
2023/10/02 07:37:24;;;;;;;7.72;3.22;;;;;;;;;;4924738;28;20650;-66
2023/10/02 07:39:58;;;;;;;9.50;3.30;;;;;;;;;;4923933;28;20528;-67
2023/10/02 07:42:26;;;;;;;8.93;3.33;;;;;;;;;;4922915;28;20058;-67
2023/10/02 07:44:52;;;;;;;8.05;2.83;;;;;;;;;;4921898;28;20031;-66
2023/10/02 07:47:19;;;;;;;8.27;3.15;;;;;;;;;;4921964;28;20387;-67
2023/10/02 07:49:48;;;;;;;7.93;3.00;;;;;;;;;;4916819;28;20145;-68
2023/10/02 07:52:26;;;;;;;7.68;2.92;;;;;;;;;;4934185;28;20126;-68
2023/10/02 07:54:59;;;;;;;8.93;3.33;;;;;;;;;;4920230;28;20034;-67
2023/10/02 07:57:32;;;;;;;9.57;3.10;;;;;;;;;;4918454;28;20046;-67
2023/10/02 08:00:05;;;;;;;8.75;3.30;;;;;;;;;;4917791;28;20033;-67
2023/10/02 08:02:33;;;;;;;8.32;2.95;;;;;;;;;;4918708;28;20114;-67
2023/10/02 08:05:04;;;;;;;10.60;4.00;;;;;;;;;;4927992;28;20031;-67
2023/10/02 08:07:30;;;;;;;10.20;4.55;;;;;;;;;;4916824;28;20519;-67
2023/10/02 08:09:58;;;;;;;9.48;4.28;;;;;;;;;;4914749;28;20031;-67
2023/10/02 08:12:33;;;;;;;10.32;4.05;;;;;;;;;;4919022;28;20035;-67
2023/10/02 08:15:04;;;;;;;9.88;4.30;;;;;;;;;;4917542;28;20513;-67
2023/10/02 08:20:15;;;;;;;8.20;3.28;;;;;;;;;;4918470;28;20388;-68
2023/10/02 08:22:45;;;;;;;8.40;3.13;;;;;;;;;;4918058;28;20035;-67
2023/10/02 08:25:15;;;;;;;13.27;3.40;;;;;;;;;;4917699;28;20342;-67
2023/10/02 08:27:44;;;;;;;11.70;3.45;;;;;;;;;;4915955;28;20049;-66
2023/10/02 08:33:18;;;;;;;10.02;3.40;;;;;;;;;;4876092;29;20131;-66
2023/10/02 08:35:47;;;;;;;11.93;3.90;;;;;;;;;;4857638;29;20055;-66
2023/10/02 08:38:23;;;;;;;7.97;2.78;;;;;;;;;;4874515;29;20549;-66
2023/10/02 08:40:58;;;;;;;10.95;3.08;;;;;;;;;;4870918;29;20071;-66
2023/10/02 08:43:28;;;;;;;7.97;2.80;;;;;;;;;;4873840;29;20035;-67
2023/10/02 08:45:55;;;;;;;7.95;2.83;;;;;;;;;;4871474;29;20471;-66
2023/10/02 08:48:22;;;;;;;6.40;2.28;;;;;;;;;;4854365;29;20096;-66
2023/10/02 08:50:48;;;;;;;6.72;2.30;;;;;;;;;;4872424;29;20040;-67
2023/10/02 08:53:21;;;;;;;9.50;2.78;;;;;;;;;;4875414;29;20029;-66
2023/10/02 08:58:17;;;;;;;7.47;2.78;;;;;;;;;;4876992;29;20091;-68
2023/10/02 09:03:43;;;;;;;11.02;2.45;;;;;;;;;;4877973;29;20668;-67
2023/10/02 09:06:27;;;;;;;7.28;2.55;;;;;;;;;;4864265;28;20032;-67
2023/10/02 09:11:39;;;;;;;7.35;2.05;;;;;;;;;;4923844;28;20042;-67
2023/10/02 09:14:39;;;;;;;6.75;2.20;;;;;;;;;;4934406;28;20429;-67
2023/10/02 09:19:49;;;;;;;22.42;4.35;;;;;;;;;;4922275;28;20032;-68
2023/10/02 09:22:19;;;;;;;32.95;5.97;;;;;;;;;;4922241;28;20358;-68
2023/10/02 09:24:58;;;;;;;6.70;2.25;;;;;;;;;;4919519;28;20633;-68
2023/10/02 09:27:28;;;;;;;8.02;2.20;;;;;;;;;;4939680;28;20055;-68
2023/10/02 09:30:21;;;;;;;6.45;2.10;;;;;;;;;;4920685;28;20070;-68
2023/10/02 09:32:52;;;;;;;8.18;4.18;;;;;;;;;;4919595;28;20093;-67
2023/10/02 09:38:06;;;;;;;7.43;2.20;;;;;;;;;;4921866;28;20050;-67
2023/10/02 09:40:58;;;;;;;6.10;1.88;;;;;;;;;;4923763;28;20638;-67
2023/10/02 09:43:28;;;;;;;7.15;2.72;;;;;;;;;;4926248;28;20027;-67
2023/10/02 09:46:15;;;;;;;7.05;2.72;;;;;;;;;;4920593;28;20045;-67
2023/10/02 09:49:01;;;;;;;6.60;2.00;;;;;;;;;;4921545;28;20037;-67
2023/10/02 09:51:45;;;;;;;4.75;1.70;;;;;;;;;;4923214;28;20031;-67
2023/10/02 09:54:18;;;;;;;6.38;2.05;;;;;;;;;;4922648;28;20031;-67
2023/10/02 09:57:06;;;;;;;8.80;2.10;;;;;;;;;;4937292;28;20106;-67
2023/10/02 09:59:48;;;;;;;8.23;1.80;;;;;;;;;;4923496;28;20039;-67
2023/10/02 10:07:46;;;;;;;5.93;1.80;;;;;;;;;;4922131;28;20293;-67
2023/10/02 10:10:27;;;;;;;8.98;2.28;;;;;;;;;;4921486;28;20062;-67
2023/10/02 10:12:58;;;;;;;7.13;2.33;;;;;;;;;;4919836;28;20492;-68
2023/10/02 10:15:25;;;;;;;6.85;2.08;;;;;;;;;;4921860;28;20315;-67
2023/10/02 10:17:51;;;;;;;8.95;2.28;;;;;;;;;;4921448;28;20149;-68
2023/10/02 10:20:22;;;;;;;8.98;2.08;;;;;;;;;;4922444;28;20027;-68
2023/10/02 10:22:51;;;;;;;10.32;2.28;;;;;;;;;;4936720;28;20039;-68
2023/10/02 10:28:02;;;;;;;7.93;1.90;;;;;;;;;;4920448;28;20625;-66
2023/10/02 10:30:46;;;;;;;7.20;2.00;;;;;;;;;;4925114;28;20505;-67
2023/10/02 10:33:20;;;;;;;8.37;2.13;;;;;;;;;;4923567;28;20054;-68
2023/10/02 10:35:51;;;;;;;5.78;1.60;;;;;;;;;;4917792;28;20277;-67
2023/10/02 10:41:33;;;;;;;7.40;1.90;;;;;;;;;;4912744;28;20039;-67
2023/10/02 10:44:06;;;;;;;7.25;1.75;;;;;;;;;;4918377;28;20031;-68
2023/10/02 10:46:32;;;;;;;7.28;1.40;;;;;;;;;;4916395;28;20724;-67
2023/10/02 10:49:09;;;;;;;7.05;1.55;;;;;;;;;;4936505;28;20032;-67
2023/10/02 10:51:37;;;;;;;7.55;1.70;;;;;;;;;;4922167;28;20482;-67
2023/10/02 10:54:22;;;;;;;5.43;1.63;;;;;;;;;;4915770;28;20040;-68
2023/10/02 10:57:18;;;;;;;7.65;1.60;;;;;;;;;;4917328;28;20383;-69
2023/10/02 10:59:45;;;;;;;6.82;1.80;;;;;;;;;;4918213;28;20477;-68
2023/10/02 11:02:16;;;;;;;6.78;1.75;;;;;;;;;;4919985;28;20598;-67
2023/10/02 11:04:49;;;;;;;6.20;1.90;;;;;;;;;;4918992;28;20027;-68
2023/10/02 11:07:21;;;;;;;6.55;1.60;;;;;;;;;;4920750;28;20047;-68
2023/10/02 11:10:19;;;;;;;6.82;1.83;;;;;;;;;;4917683;28;20027;-68
2023/10/02 11:12:55;;;;;;;6.50;1.60;;;;;;;;;;4917878;28;20050;-69
2023/10/02 11:18:20;;;;;;;8.25;1.70;;;;;;;;;;4919692;28;20082;-68
2023/10/02 11:20:56;;;;;;;9.68;1.70;;;;;;;;;;4918374;28;20501;-68
2023/10/02 11:23:39;;;;;;;5.95;1.63;;;;;;;;;;4920629;28;20345;-69
2023/10/02 11:26:21;;;;;;;4.43;1.40;;;;;;;;;;4917193;28;20031;-68
2023/10/02 11:28:49;;;;;;;5.80;1.70;;;;;;;;;;4916202;28;20027;-69
2023/10/02 11:31:32;;;;;;;6.15;1.40;;;;;;;;;;4934891;28;20043;-69
2023/10/02 11:34:05;;;;;;;7.93;1.88;;;;;;;;;;4933831;28;20046;-69
2023/10/02 11:36:35;;;;;;;5.60;1.70;;;;;;;;;;4934373;28;20039;-69
2023/10/02 11:39:08;;;;;;;6.05;1.60;;;;;;;;;;4916501;28;20048;-69
2023/10/02 11:41:34;;;;;;;5.03;1.60;;;;;;;;;;4921292;28;20547;-69
2023/10/02 11:44:01;;;;;;;6.22;1.55;;;;;;;;;;4920062;28;21600;-68
2023/10/02 11:46:27;;;;;;;3.88;1.30;;;;;;;;;;4920248;28;20472;-67
2023/10/02 11:48:54;;;;;;;4.63;1.50;;;;;;;;;;4919732;28;20530;-68
2023/10/02 11:51:20;;;;;;;7.53;1.67;;;;;;;;;;4920919;28;20035;-68
2023/10/02 11:53:46;;;;;;;6.95;1.67;;;;;;;;;;4914651;28;20038;-69
2023/10/02 11:56:12;;;;;;;7.00;2.25;;;;;;;;;;4935341;28;20366;-68
2023/10/02 11:58:38;;;;;;;9.60;1.98;;;;;;;;;;4938462;28;20057;-68
2023/10/02 12:01:06;;;;;;;5.43;1.60;;;;;;;;;;4919091;28;20026;-69
2023/10/02 12:03:36;;;;;;;9.35;1.80;;;;;;;;;;4938409;28;20527;-68
2023/10/02 12:06:03;;;;;;;5.35;1.80;;;;;;;;;;4918767;28;20429;-68
2023/10/02 12:08:33;;;;;;;9.82;2.00;;;;;;;;;;4938467;28;20487;-69
2023/10/02 12:11:00;;;;;;;5.80;1.58;;;;;;;;;;4936329;28;20043;-69
2023/10/02 12:13:28;;;;;;;4.93;1.70;;;;;;;;;;4939014;28;20406;-69
2023/10/02 12:15:55;;;;;;;5.63;1.80;;;;;;;;;;4922791;28;20027;-68
2023/10/02 12:18:21;;;;;;;5.53;1.90;;;;;;;;;;4921809;28;20031;-68
2023/10/02 12:20:49;;;;;;;8.13;1.90;;;;;;;;;;4920153;28;20039;-68
2023/10/02 12:23:16;;;;;;;5.57;2.03;;;;;;;;;;4923514;28;20035;-69
2023/10/02 12:25:48;;;;;;;8.75;2.20;;;;;;;;;;4919133;28;20611;-69
2023/10/02 12:28:15;;;;;;;8.52;2.28;;;;;;;;;;4937689;28;20046;-70
2023/10/02 12:30:41;;;;;;;6.97;2.20;;;;;;;;;;4922414;28;20622;-68
2023/10/02 12:33:09;;;;;;;10.35;2.05;;;;;;;;;;4922824;28;20043;-69
2023/10/02 12:35:39;;;;;;;5.13;1.95;;;;;;;;;;4922253;28;20038;-70
2023/10/02 12:38:07;;;;;;;6.35;2.00;;;;;;;;;;4919213;28;20066;-70
2023/10/02 12:40:33;;;;;;;7.07;2.22;;;;;;;;;;4940373;28;20403;-69
2023/10/02 12:43:01;;;;;;;6.82;2.00;;;;;;;;;;4920371;28;20394;-69
2023/10/02 12:45:35;;;;;;;6.47;1.95;;;;;;;;;;4929814;28;20035;-69
2023/10/02 12:48:07;;;;;;;6.03;1.88;;;;;;;;;;4929113;28;20630;-69
2023/10/02 12:50:40;;;;;;;7.57;2.25;;;;;;;;;;4930608;28;20378;-69
2023/10/02 12:53:06;;;;;;;7.90;2.30;;;;;;;;;;4927370;28;20039;-70
2023/10/02 12:55:36;;;;;;;6.88;2.40;;;;;;;;;;4929703;28;20027;-69
2023/10/02 12:58:04;;;;;;;6.05;2.00;;;;;;;;;;4924876;28;20024;-69
2023/10/02 13:00:33;;;;;;;6.45;2.20;;;;;;;;;;4930758;28;20024;-69
2023/10/02 13:02:59;;;;;;;6.57;2.00;;;;;;;;;;4946732;28;20067;-68
2023/10/02 13:05:26;;;;;;;5.50;1.83;;;;;;;;;;4933744;28;20067;-68
2023/10/02 13:07:56;;;;;;;6.78;2.00;;;;;;;;;;4927749;28;20069;-71
2023/10/02 13:10:26;;;;;;;6.13;1.90;;;;;;;;;;4930838;28;20035;-67
2023/10/02 13:12:52;;;;;;;6.03;1.90;;;;;;;;;;4927992;28;20732;-67
2023/10/02 13:15:19;;;;;;;7.85;2.10;;;;;;;;;;4925761;28;20030;-67
2023/10/02 13:17:45;;;;;;;5.68;1.67;;;;;;;;;;4927100;28;20550;-67
2023/10/02 13:20:11;;;;;;;7.78;2.28;;;;;;;;;;4930975;28;20077;-67
2023/10/02 13:22:38;;;;;;;5.90;1.98;;;;;;;;;;4930779;28;20339;-67
2023/10/02 13:25:04;;;;;;;7.95;2.15;;;;;;;;;;4932202;28;20035;-68
2023/10/02 13:27:36;;;;;;;7.40;1.77;;;;;;;;;;4934678;28;20036;-68
2023/10/02 13:30:05;;;;;;;6.82;1.80;;;;;;;;;;4944521;28;20031;-67
2023/10/02 13:32:31;;;;;;;6.75;2.13;;;;;;;;;;4929473;28;20034;-67
2023/10/02 13:34:57;;;;;;;6.50;2.22;;;;;;;;;;4927126;28;20682;-67
2023/10/02 13:37:23;;;;;;;8.85;2.63;;;;;;;;;;4928789;28;20114;-68
2023/10/02 13:39:50;;;;;;;7.45;2.70;;;;;;;;;;4942730;28;20190;-69
2023/10/02 13:42:16;;;;;;;7.57;2.30;;;;;;;;;;4929279;28;20039;-67
2023/10/02 13:44:43;;;;;;;6.15;1.90;;;;;;;;;;4928157;28;20813;-67
2023/10/02 13:47:09;;;;;;;4.68;1.85;;;;;;;;;;4931323;28;20496;-67
2023/10/02 13:49:35;;;;;;;4.90;1.80;;;;;;;;;;4925239;28;20031;-70
2023/10/02 13:52:01;;;;;;;8.45;2.05;;;;;;;;;;4930436;28;20317;-69
2023/10/02 13:54:27;;;;;;;7.63;2.20;;;;;;;;;;4931060;28;20471;-68
2023/10/02 13:56:54;;;;;;;5.07;2.10;;;;;;;;;;4932560;28;20094;-67
2023/10/02 13:59:21;;;;;;;7.57;2.10;;;;;;;;;;4936724;28;20114;-68
2023/10/02 14:01:48;;;;;;;5.30;1.70;;;;;;;;;;4931071;28;20126;-68
2023/10/02 14:04:14;;;;;;;10.25;1.90;;;;;;;;;;4932434;28;20418;-68
2023/10/02 14:06:41;;;;;;;8.02;1.98;;;;;;;;;;4933082;28;20034;-66
2023/10/02 14:09:10;;;;;;;6.15;1.95;;;;;;;;;;4944916;28;20393;-67
2023/10/02 14:11:39;;;;;;;5.68;1.90;;;;;;;;;;4933081;28;20026;-68
2023/10/02 14:14:06;;;;;;;5.68;1.90;;;;;;;;;;4945786;28;20051;-67
2023/10/02 14:16:33;;;;;;;6.38;2.13;;;;;;;;;;4935658;28;20042;-68
2023/10/02 14:19:00;;;;;;;9.65;2.00;;;;;;;;;;4930809;28;20057;-67
2023/10/02 14:21:26;;;;;;;6.22;1.92;;;;;;;;;;4949453;28;20636;-67
2023/10/02 14:23:54;;;;;;;6.90;2.28;;;;;;;;;;4932175;28;20308;-66
2023/10/02 14:26:22;;;;;;;6.57;2.33;;;;;;;;;;4932467;28;20039;-66
2023/10/02 14:28:48;;;;;;;7.13;2.22;;;;;;;;;;4927639;28;20035;-67
2023/10/02 14:31:23;;;;;;;5.50;1.92;;;;;;;;;;4935465;28;20152;-67
2023/10/02 14:33:50;;;;;;;5.78;2.20;;;;;;;;;;4926924;28;20528;-66
2023/10/02 14:36:17;;;;;;;5.30;1.90;;;;;;;;;;4931420;28;20069;-67
2023/10/02 14:38:43;;;;;;;5.25;1.80;;;;;;;;;;4945118;28;20040;-66
2023/10/02 14:41:09;;;;;;;6.28;2.10;;;;;;;;;;4932120;28;20478;-66
2023/10/02 14:43:36;;;;;;;4.88;1.90;;;;;;;;;;4933481;28;20030;-68
2023/10/02 14:46:04;;;;;;;7.15;2.05;;;;;;;;;;4928681;28;20541;-67
2023/10/02 14:48:32;;;;;;;6.32;2.25;;;;;;;;;;4931186;28;20035;-67
2023/10/02 14:50:58;;;;;;;7.50;2.47;;;;;;;;;;4929806;28;21003;-67
2023/10/02 14:53:28;;;;;;;4.88;2.00;;;;;;;;;;4931014;28;20390;-67
2023/10/02 14:55:55;;;;;;;7.00;2.20;;;;;;;;;;4927385;28;20036;-66
2023/10/02 14:58:21;;;;;;;6.78;2.08;;;;;;;;;;4931800;28;20039;-66
2023/10/02 15:00:49;;;;;;;6.18;2.05;;;;;;;;;;4930116;28;20928;-66
2023/10/02 15:03:16;;;;;;;14.20;2.67;;;;;;;;;;4929598;28;20062;-66
2023/10/02 15:05:42;;;;;;;12.23;2.30;;;;;;;;;;4931461;28;20133;-66
2023/10/02 15:08:12;;;;;;;8.88;2.45;;;;;;;;;;4935450;28;20051;-66
2023/10/02 15:10:39;;;;;;;6.57;1.98;;;;;;;;;;4930625;28;20075;-66
2023/10/02 15:13:06;;;;;;;6.63;2.03;;;;;;;;;;4934017;28;20028;-66
2023/10/02 15:15:32;;;;;;;7.68;2.30;;;;;;;;;;4932406;28;20227;-66
2023/10/02 15:17:59;;;;;;;6.82;2.28;;;;;;;;;;4945337;28;20390;-67
2023/10/02 15:20:25;;;;;;;7.60;2.05;;;;;;;;;;4934469;28;20034;-66
2023/10/02 15:22:53;;;;;;;6.55;2.40;;;;;;;;;;4928606;28;20027;-66
2023/10/02 15:25:20;;;;;;;7.05;2.45;;;;;;;;;;4931479;28;20556;-66
2023/10/02 15:27:52;;;;;;;7.22;1.92;;;;;;;;;;4929925;28;20117;-66
2023/10/02 15:30:20;;;;;;;9.27;2.40;;;;;;;;;;4927256;28;20174;-69
2023/10/02 15:32:47;;;;;;;8.95;2.10;;;;;;;;;;4932882;28;20042;-67
2023/10/02 15:35:15;;;;;;;6.28;2.00;;;;;;;;;;4944098;28;20364;-67
2023/10/02 15:37:46;;;;;;;5.90;1.85;;;;;;;;;;4934244;28;20094;-67
2023/10/02 15:40:14;;;;;;;6.25;2.50;;;;;;;;;;4931082;28;20025;-67
2023/10/02 15:42:41;;;;;;;6.28;2.20;;;;;;;;;;4929214;28;20466;-69
2023/10/02 15:45:14;;;;;;;6.15;2.20;;;;;;;;;;4941387;28;20027;-67
2023/10/02 15:47:47;;;;;;;6.13;2.22;;;;;;;;;;4928376;28;20473;-67
2023/10/02 15:50:17;;;;;;;7.32;2.38;;;;;;;;;;4944588;28;20042;-67
2023/10/02 15:52:44;;;;;;;6.72;2.50;;;;;;;;;;4926585;28;20031;-65
2023/10/02 15:55:11;;;;;;;6.20;2.10;;;;;;;;;;4946646;28;20023;-66
2023/10/02 15:57:42;;;;;;;7.30;2.08;;;;;;;;;;4928610;28;20566;-65
2023/10/02 16:00:09;;;;;;;4.93;2.00;;;;;;;;;;4942210;28;20281;-66